Time;durP1;ratioP1;P1;durP2;ratioP2;P2;SDS_P1;SDS_P2;PMS_P1;PMS_P2;Temp;Humidity;BMP_temperature;BMP_pressure;BME280_temperature;BME280_humidity;BME280_pressure;Samples;Min_cycle;Max_cycle;Signal;HPM_P1;HPM_P2
2023/04/04 00:00:01;;;;;;;0.00;0.00;;;4.50;72.00;;;;;;4970646;28;20081;-65
2023/04/04 00:02:26;;;;;;;0.10;0.10;;;4.50;71.80;;;;;;4970465;28;20854;-65
2023/04/04 00:04:52;;;;;;;0.00;0.00;;;4.40;72.10;;;;;;4970872;28;20041;-65
2023/04/04 00:07:18;;;;;;;0.00;0.00;;;4.40;72.00;;;;;;4952552;28;20081;-65
2023/04/04 00:09:44;;;;;;;0.00;0.00;;;4.40;72.20;;;;;;4970457;28;20139;-65
2023/04/04 00:12:09;;;;;;;0.00;0.00;;;4.40;71.90;;;;;;4953169;28;20461;-66
2023/04/04 00:14:35;;;;;;;0.00;0.00;;;4.40;72.20;;;;;;4952149;28;20054;-65
2023/04/04 00:17:00;;;;;;;0.00;0.00;;;4.40;72.10;;;;;;4971256;28;20125;-65
2023/04/04 00:19:26;;;;;;;0.03;0.03;;;4.40;72.50;;;;;;4971197;28;20035;-65
2023/04/04 00:21:51;;;;;;;0.00;0.00;;;4.40;72.60;;;;;;4970271;28;20097;-65
2023/04/04 00:24:17;;;;;;;0.00;0.00;;;4.40;72.30;;;;;;4969698;28;20047;-65
2023/04/04 00:26:42;;;;;;;0.00;0.00;;;4.30;72.60;;;;;;4952564;28;20121;-65
2023/04/04 00:29:08;;;;;;;0.00;0.00;;;4.30;73.10;;;;;;4969748;28;20042;-65
2023/04/04 00:31:34;;;;;;;0.00;0.00;;;4.40;73.00;;;;;;4969797;28;20042;-65
2023/04/04 00:33:59;;;;;;;0.08;0.08;;;4.30;73.30;;;;;;4970237;28;20035;-65
2023/04/04 00:36:25;;;;;;;0.00;0.00;;;4.30;73.40;;;;;;4969683;28;20121;-65
2023/04/04 00:38:51;;;;;;;0.00;0.00;;;4.40;73.60;;;;;;4969085;28;20051;-65
2023/04/04 00:41:17;;;;;;;0.00;0.00;;;4.40;73.60;;;;;;4969415;28;20050;-65
2023/04/04 00:43:43;;;;;;;0.00;0.00;;;4.40;73.80;;;;;;4969861;28;20030;-65
2023/04/04 00:46:13;;;;;;;0.00;0.00;;;4.40;73.60;;;;;;4969381;28;20043;-65
2023/04/04 00:48:40;;;;;;;0.00;0.00;;;4.40;73.80;;;;;;4949235;28;20090;-65
2023/04/04 00:51:06;;;;;;;0.00;0.00;;;4.40;73.90;;;;;;4969301;28;20133;-65
2023/04/04 00:53:32;;;;;;;0.00;0.00;;;4.40;73.90;;;;;;4952400;28;20459;-65
2023/04/04 00:55:57;;;;;;;0.00;0.00;;;4.40;73.70;;;;;;4969653;28;20046;-65
2023/04/04 00:58:25;;;;;;;0.00;0.00;;;4.40;73.50;;;;;;4969518;28;20034;-65
2023/04/04 01:00:51;;;;;;;0.00;0.00;;;4.40;73.50;;;;;;4965231;28;20038;-66
2023/04/04 01:03:18;;;;;;;0.32;0.32;;;4.30;73.60;;;;;;4968960;28;20049;-65
2023/04/04 01:05:44;;;;;;;0.00;0.00;;;4.40;74.10;;;;;;4969371;28;20058;-66
2023/04/04 01:08:10;;;;;;;0.00;0.00;;;4.40;74.30;;;;;;4969385;28;20034;-65
2023/04/04 01:10:37;;;;;;;0.00;0.00;;;4.40;74.40;;;;;;4969123;28;20117;-65
2023/04/04 01:13:03;;;;;;;0.15;0.15;;;4.40;74.60;;;;;;4969727;28;20039;-65
2023/04/04 01:15:29;;;;;;;0.00;0.00;;;4.40;74.60;;;;;;4969031;28;20046;-65
2023/04/04 01:17:58;;;;;;;0.00;0.00;;;4.40;74.40;;;;;;4969877;28;20057;-65
2023/04/04 01:20:28;;;;;;;0.00;0.00;;;4.40;74.20;;;;;;4969026;28;20054;-66
2023/04/04 01:22:55;;;;;;;0.00;0.00;;;4.30;74.50;;;;;;4969846;28;20047;-66
2023/04/04 01:25:30;;;;;;;0.00;0.00;;;4.30;74.60;;;;;;4968857;28;20089;-65
2023/04/04 01:27:57;;;;;;;0.00;0.00;;;4.30;74.70;;;;;;4969526;28;20565;-65
2023/04/04 01:30:24;;;;;;;0.00;0.00;;;4.30;74.80;;;;;;4969334;28;20050;-65
2023/04/04 01:33:15;;;;;;;0.00;0.00;;;4.30;74.80;;;;;;4968604;28;20107;-65
2023/04/04 01:36:09;;;;;;;0.03;0.03;;;4.40;74.80;;;;;;4967069;28;20056;-65
2023/04/04 01:38:51;;;;;;;0.35;0.35;;;4.40;75.00;;;;;;4965200;28;20431;-65
2023/04/04 01:41:19;;;;;;;0.00;0.00;;;4.30;74.80;;;;;;4967700;28;20862;-65
2023/04/04 01:43:47;;;;;;;0.00;0.00;;;4.30;74.80;;;;;;4965698;28;20121;-65
2023/04/04 01:46:16;;;;;;;0.00;0.00;;;4.30;75.00;;;;;;4969608;28;20094;-66
2023/04/04 01:48:41;;;;;;;0.00;0.00;;;4.20;74.80;;;;;;4970017;28;20492;-65
2023/04/04 01:51:07;;;;;;;0.00;0.00;;;4.20;74.90;;;;;;4977675;28;20066;-65
2023/04/04 01:53:33;;;;;;;0.00;0.00;;;4.20;75.00;;;;;;4952018;28;20058;-65
2023/04/04 01:55:59;;;;;;;0.00;0.00;;;4.20;75.00;;;;;;4970060;28;20055;-65
2023/04/04 01:58:25;;;;;;;0.00;0.00;;;4.10;75.10;;;;;;4989233;28;20052;-65
2023/04/04 02:00:50;;;;;;;0.00;0.00;;;4.10;75.00;;;;;;4989257;28;20042;-65
2023/04/04 02:03:16;;;;;;;0.00;0.00;;;4.10;74.90;;;;;;4988393;28;20058;-65
2023/04/04 02:05:42;;;;;;;0.10;0.10;;;4.10;74.90;;;;;;4989337;28;20074;-65
2023/04/04 02:08:08;;;;;;;0.00;0.00;;;4.10;74.90;;;;;;4971368;28;20691;-64
2023/04/04 02:10:33;;;;;;;0.00;0.00;;;4.00;74.90;;;;;;4969707;28;20089;-65
2023/04/04 02:12:59;;;;;;;0.93;0.25;;;4.00;75.00;;;;;;4969783;28;20074;-65
2023/04/04 02:15:25;;;;;;;0.05;0.05;;;4.00;75.00;;;;;;4969816;28;20133;-65
2023/04/04 02:17:51;;;;;;;0.00;0.00;;;3.90;75.00;;;;;;4985134;28;20046;-65
2023/04/04 02:20:20;;;;;;;0.08;0.08;;;3.90;75.10;;;;;;4971299;28;20047;-65
2023/04/04 02:22:52;;;;;;;0.05;0.05;;;3.90;75.00;;;;;;4969791;28;20039;-65
2023/04/04 02:25:18;;;;;;;0.00;0.00;;;3.80;75.10;;;;;;4969530;28;20527;-66
2023/04/04 02:27:44;;;;;;;0.00;0.00;;;3.70;75.00;;;;;;4984061;28;20053;-65
2023/04/04 02:30:11;;;;;;;0.00;0.00;;;3.70;75.10;;;;;;4973063;28;20054;-65
2023/04/04 02:32:37;;;;;;;0.00;0.00;;;3.70;75.10;;;;;;4973299;28;20049;-64
2023/04/04 02:35:03;;;;;;;0.10;0.10;;;3.70;75.20;;;;;;4989116;28;20058;-64
2023/04/04 02:37:29;;;;;;;0.00;0.00;;;3.70;75.50;;;;;;4973866;28;20057;-64
2023/04/04 02:39:54;;;;;;;0.10;0.10;;;3.70;75.60;;;;;;4973006;28;20121;-64
2023/04/04 02:42:20;;;;;;;0.10;0.10;;;3.70;75.60;;;;;;4977222;28;20078;-64
2023/04/04 02:44:46;;;;;;;0.43;0.43;;;3.70;75.90;;;;;;4992807;28;20507;-64
2023/04/04 02:47:11;;;;;;;0.00;0.00;;;3.60;76.00;;;;;;4989864;28;20039;-64
2023/04/04 02:49:37;;;;;;;0.00;0.00;;;3.60;75.90;;;;;;4972475;28;20054;-64
2023/04/04 02:52:02;;;;;;;0.00;0.00;;;3.60;75.80;;;;;;4972905;28;20391;-64
2023/04/04 02:54:28;;;;;;;0.00;0.00;;;3.60;75.90;;;;;;4972938;28;20122;-65
2023/04/04 02:56:54;;;;;;;0.00;0.00;;;3.60;76.10;;;;;;4972834;28;20109;-64
2023/04/04 02:59:20;;;;;;;0.00;0.00;;;3.60;76.10;;;;;;4972288;28;20035;-64
2023/04/04 03:01:45;;;;;;;0.00;0.00;;;3.60;76.00;;;;;;4972609;28;20082;-64
2023/04/04 03:04:12;;;;;;;0.00;0.00;;;3.60;75.90;;;;;;4972589;28;20051;-64
2023/04/04 03:06:39;;;;;;;0.00;0.00;;;3.60;75.80;;;;;;4972403;28;20063;-65
2023/04/04 03:09:05;;;;;;;0.00;0.00;;;3.50;75.80;;;;;;4972090;28;20499;-64
2023/04/04 03:11:30;;;;;;;0.00;0.00;;;3.60;75.80;;;;;;4972424;28;20054;-64
2023/04/04 03:13:56;;;;;;;0.00;0.00;;;3.50;75.80;;;;;;4943222;29;20130;-64
2023/04/04 03:16:22;;;;;;;0.10;0.10;;;3.50;75.80;;;;;;4966816;28;20089;-65
2023/04/04 03:18:48;;;;;;;0.00;0.00;;;3.50;75.90;;;;;;4972351;28;20039;-64
2023/04/04 03:21:13;;;;;;;0.00;0.00;;;3.50;75.80;;;;;;4972038;28;20058;-65
2023/04/04 03:23:39;;;;;;;0.00;0.00;;;3.50;75.90;;;;;;4972207;28;20096;-65
2023/04/04 03:26:05;;;;;;;0.00;0.00;;;3.40;76.10;;;;;;4955262;28;20561;-64
2023/04/04 03:28:30;;;;;;;0.00;0.00;;;3.40;76.10;;;;;;4971834;28;20051;-65
2023/04/04 03:30:56;;;;;;;0.00;0.00;;;3.40;76.20;;;;;;4972399;28;20050;-65
2023/04/04 03:33:22;;;;;;;0.00;0.00;;;3.40;76.30;;;;;;4971595;28;20042;-65
2023/04/04 03:35:48;;;;;;;0.00;0.00;;;3.40;76.40;;;;;;4971642;28;20051;-65
2023/04/04 03:38:13;;;;;;;0.00;0.00;;;3.30;76.40;;;;;;4972107;28;20042;-65
2023/04/04 03:40:40;;;;;;;0.00;0.00;;;3.30;76.30;;;;;;4971506;28;20484;-64
2023/04/04 03:43:06;;;;;;;0.00;0.00;;;3.30;76.30;;;;;;4957334;28;20046;-65
2023/04/04 03:45:34;;;;;;;0.00;0.00;;;3.30;76.10;;;;;;4971818;28;20034;-64
2023/04/04 03:48:01;;;;;;;0.00;0.00;;;3.20;76.00;;;;;;4971060;28;20042;-65
2023/04/04 03:50:26;;;;;;;0.00;0.00;;;3.20;75.80;;;;;;4976668;28;20050;-65
2023/04/04 03:52:52;;;;;;;0.00;0.00;;;3.20;75.80;;;;;;4983243;28;20053;-65
2023/04/04 03:55:17;;;;;;;0.00;0.00;;;3.20;75.90;;;;;;4986025;28;20097;-65
2023/04/04 03:57:43;;;;;;;0.00;0.00;;;3.20;75.90;;;;;;4987169;28;20050;-65
2023/04/04 04:00:09;;;;;;;0.00;0.00;;;3.10;75.80;;;;;;4969173;28;20042;-64
2023/04/04 04:02:35;;;;;;;0.03;0.03;;;3.10;76.00;;;;;;4971455;28;20062;-64
2023/04/04 04:05:01;;;;;;;0.00;0.00;;;3.10;75.90;;;;;;4971304;28;20039;-65
2023/04/04 04:07:26;;;;;;;0.00;0.00;;;3.10;75.80;;;;;;4984561;28;20057;-64
2023/04/04 04:09:52;;;;;;;0.00;0.00;;;3.10;75.80;;;;;;4990541;28;20042;-64
2023/04/04 04:12:18;;;;;;;0.10;0.10;;;3.10;75.90;;;;;;4991098;28;20042;-64
2023/04/04 04:14:43;;;;;;;0.00;0.00;;;3.10;75.90;;;;;;4986249;28;20053;-64
2023/04/04 04:17:09;;;;;;;0.00;0.00;;;3.10;75.90;;;;;;4971408;28;20070;-64
2023/04/04 04:19:34;;;;;;;0.00;0.00;;;3.10;75.80;;;;;;4981732;28;20050;-64
2023/04/04 04:22:00;;;;;;;0.00;0.00;;;3.00;75.70;;;;;;4990791;28;20129;-64
2023/04/04 04:24:26;;;;;;;0.00;0.00;;;3.10;75.90;;;;;;4985825;28;20225;-64
2023/04/04 04:26:51;;;;;;;0.00;0.00;;;3.10;75.80;;;;;;4974045;28;20053;-64
2023/04/04 04:29:20;;;;;;;0.00;0.00;;;3.00;75.80;;;;;;4974378;28;20074;-64
2023/04/04 04:31:45;;;;;;;0.00;0.00;;;3.00;75.90;;;;;;4970694;28;20078;-64
2023/04/04 04:34:11;;;;;;;0.00;0.00;;;3.10;75.90;;;;;;4972683;28;20035;-64
2023/04/04 04:36:37;;;;;;;0.00;0.00;;;3.00;75.80;;;;;;4969783;28;20046;-64
2023/04/04 04:39:02;;;;;;;0.00;0.00;;;3.10;75.90;;;;;;4969778;28;20042;-64
2023/04/04 04:41:28;;;;;;;0.00;0.00;;;3.10;75.90;;;;;;4968987;28;20035;-64
2023/04/04 04:43:54;;;;;;;0.00;0.00;;;3.10;76.00;;;;;;4969828;28;20041;-64
2023/04/04 04:46:20;;;;;;;0.10;0.10;;;3.10;76.00;;;;;;4970736;28;20166;-64
2023/04/04 04:48:46;;;;;;;0.10;0.10;;;3.10;76.00;;;;;;4970170;28;20055;-64
2023/04/04 04:51:13;;;;;;;0.08;0.08;;;3.10;76.10;;;;;;4971748;28;20668;-64
2023/04/04 04:53:40;;;;;;;0.00;0.00;;;3.10;75.90;;;;;;4968561;28;20130;-64
2023/04/04 04:56:06;;;;;;;0.00;0.00;;;3.10;75.90;;;;;;4969536;28;20042;-64
2023/04/04 04:58:32;;;;;;;0.10;0.10;;;3.00;75.80;;;;;;4969508;28;20043;-64
2023/04/04 05:00:58;;;;;;;0.10;0.10;;;3.10;76.00;;;;;;4968745;28;20158;-64
2023/04/04 05:03:24;;;;;;;0.10;0.10;;;3.00;76.10;;;;;;4952490;28;20050;-64
2023/04/04 05:05:50;;;;;;;0.00;0.00;;;3.00;76.10;;;;;;4967801;28;20058;-64
2023/04/04 05:08:16;;;;;;;0.00;0.00;;;3.00;76.40;;;;;;4947942;28;20049;-65
2023/04/04 05:10:42;;;;;;;0.00;0.00;;;3.00;76.20;;;;;;4967801;28;20035;-65
2023/04/04 05:13:08;;;;;;;0.00;0.00;;;3.00;76.10;;;;;;4968804;28;20041;-64
2023/04/04 05:15:34;;;;;;;0.00;0.00;;;3.00;76.00;;;;;;4968268;28;20054;-64
2023/04/04 05:18:00;;;;;;;0.00;0.00;;;3.00;76.00;;;;;;4968329;28;20530;-64
2023/04/04 05:20:26;;;;;;;0.00;0.00;;;3.00;76.00;;;;;;4968903;28;20114;-64
2023/04/04 05:22:51;;;;;;;0.00;0.00;;;3.00;76.00;;;;;;4968225;28;20050;-64
2023/04/04 05:25:17;;;;;;;0.00;0.00;;;3.00;75.90;;;;;;4968421;28;20592;-64
2023/04/04 05:27:47;;;;;;;0.00;0.00;;;3.00;75.80;;;;;;4954615;28;20046;-64
2023/04/04 05:30:13;;;;;;;0.00;0.00;;;3.00;75.80;;;;;;4969021;28;20053;-64
2023/04/04 05:32:38;;;;;;;0.00;0.00;;;3.00;75.80;;;;;;4967725;28;20046;-64
2023/04/04 05:35:04;;;;;;;0.00;0.00;;;3.00;75.90;;;;;;4968822;28;20132;-64
2023/04/04 05:37:30;;;;;;;0.00;0.00;;;3.00;76.00;;;;;;4963233;28;20578;-64
2023/04/04 05:39:56;;;;;;;0.00;0.00;;;3.00;76.00;;;;;;4967236;28;20046;-64
2023/04/04 05:42:22;;;;;;;0.00;0.00;;;3.10;76.10;;;;;;4966854;28;20054;-65
2023/04/04 05:44:47;;;;;;;0.00;0.00;;;3.10;76.20;;;;;;4967220;28;20066;-65
2023/04/04 05:47:13;;;;;;;0.00;0.00;;;3.10;76.20;;;;;;4967555;28;20050;-65
2023/04/04 05:49:38;;;;;;;0.00;0.00;;;3.10;76.20;;;;;;4967322;28;20060;-64
2023/04/04 05:52:04;;;;;;;0.00;0.00;;;3.10;76.20;;;;;;4966370;28;20054;-64
2023/04/04 05:54:29;;;;;;;0.00;0.00;;;3.10;76.20;;;;;;4967185;28;20047;-64
2023/04/04 05:56:55;;;;;;;0.00;0.00;;;3.10;76.20;;;;;;4967587;28;20043;-64
2023/04/04 05:59:21;;;;;;;0.00;0.00;;;3.20;76.20;;;;;;4967476;28;20093;-70
2023/04/04 06:01:46;;;;;;;0.00;0.00;;;3.10;76.10;;;;;;4967425;28;20062;-67
2023/04/04 06:04:12;;;;;;;0.00;0.00;;;3.60;79.00;;;;;;4967485;28;20125;-67
2023/04/04 06:06:38;;;;;;;0.00;0.00;;;3.80;79.80;;;;;;4965912;28;20066;-67
2023/04/04 06:09:03;;;;;;;0.00;0.00;;;4.10;79.80;;;;;;4950426;28;20043;-67
2023/04/04 06:11:29;;;;;;;0.68;0.68;;;4.30;79.00;;;;;;4947089;28;20205;-65
2023/04/04 06:13:55;;;;;;;0.00;0.00;;;4.40;78.20;;;;;;4965652;28;20046;-64
2023/04/04 06:16:21;;;;;;;0.00;0.00;;;4.30;77.40;;;;;;4970564;28;20054;-65
2023/04/04 06:18:46;;;;;;;0.03;0.03;;;4.20;76.80;;;;;;4941225;28;20096;-66
2023/04/04 06:21:12;;;;;;;0.00;0.00;;;4.20;76.40;;;;;;4972481;28;20168;-65
2023/04/04 06:23:39;;;;;;;0.10;0.10;;;4.10;76.30;;;;;;4971945;28;20046;-65
2023/04/04 06:26:05;;;;;;;0.00;0.00;;;4.00;76.10;;;;;;4972824;28;20034;-65
2023/04/04 06:28:31;;;;;;;0.00;0.00;;;4.00;76.00;;;;;;4972499;28;20043;-65
2023/04/04 06:30:57;;;;;;;0.00;0.00;;;4.00;75.90;;;;;;4972144;28;20043;-65
2023/04/04 06:33:22;;;;;;;0.00;0.00;;;3.90;75.90;;;;;;4973034;28;20050;-64
2023/04/04 06:35:48;;;;;;;1.25;0.75;;;4.00;75.80;;;;;;4972346;28;20043;-65
2023/04/04 06:38:13;;;;;;;0.00;0.00;;;3.90;75.80;;;;;;4973092;28;20054;-65
2023/04/04 06:40:39;;;;;;;0.00;0.00;;;4.00;75.80;;;;;;4971701;28;20047;-65
2023/04/04 06:43:04;;;;;;;0.10;0.10;;;4.10;75.70;;;;;;4972613;28;20042;-65
2023/04/04 06:45:32;;;;;;;0.00;0.00;;;4.00;75.50;;;;;;4952477;28;20050;-64
2023/04/04 06:47:58;;;;;;;0.20;0.20;;;4.00;75.50;;;;;;4969798;28;20051;-65
2023/04/04 06:50:24;;;;;;;0.10;0.10;;;4.00;75.50;;;;;;4959368;28;21569;-65
2023/04/04 06:52:51;;;;;;;0.00;0.00;;;4.00;75.40;;;;;;4957993;28;20043;-65
2023/04/04 06:55:17;;;;;;;0.00;0.00;;;4.00;75.30;;;;;;4961109;28;20126;-65
2023/04/04 06:57:43;;;;;;;0.00;0.00;;;4.10;75.30;;;;;;4963314;28;20179;-64
2023/04/04 07:00:09;;;;;;;0.00;0.00;;;4.10;75.30;;;;;;4963979;28;20124;-64
2023/04/04 07:02:35;;;;;;;0.00;0.00;;;4.10;75.20;;;;;;4964843;28;20407;-65
2023/04/04 07:05:03;;;;;;;0.00;0.00;;;4.10;75.10;;;;;;4965032;28;20047;-64
2023/04/04 07:07:28;;;;;;;0.00;0.00;;;4.20;75.00;;;;;;4963315;28;20046;-64
2023/04/04 07:09:55;;;;;;;0.00;0.00;;;4.20;74.90;;;;;;4962951;28;20038;-64
2023/04/04 07:12:20;;;;;;;0.00;0.00;;;4.20;74.80;;;;;;4947168;28;20085;-64
2023/04/04 07:14:46;;;;;;;0.00;0.00;;;4.30;74.70;;;;;;4960843;28;20046;-64
2023/04/04 07:17:12;;;;;;;0.00;0.00;;;4.30;74.60;;;;;;4960345;28;20123;-64
2023/04/04 07:19:38;;;;;;;0.00;0.00;;;4.30;74.40;;;;;;4962542;28;20058;-64
2023/04/04 07:22:03;;;;;;;0.00;0.00;;;4.40;74.20;;;;;;4962725;28;20039;-63
2023/04/04 07:24:29;;;;;;;0.10;0.10;;;4.30;73.90;;;;;;4962046;28;20090;-64
2023/04/04 07:26:55;;;;;;;0.00;0.00;;;4.40;74.00;;;;;;4944830;28;20034;-64
2023/04/04 07:29:20;;;;;;;0.05;0.05;;;4.40;73.90;;;;;;4962354;28;20049;-64
2023/04/04 07:31:46;;;;;;;0.00;0.00;;;4.40;73.90;;;;;;4957785;28;20051;-63
2023/04/04 07:34:12;;;;;;;0.00;0.00;;;4.50;73.90;;;;;;4948526;28;20050;-63
2023/04/04 07:36:37;;;;;;;0.00;0.00;;;4.50;73.80;;;;;;4961942;28;20576;-65
2023/04/04 07:39:03;;;;;;;0.00;0.00;;;4.60;73.70;;;;;;4964897;28;20038;-65
2023/04/04 07:41:29;;;;;;;0.00;0.00;;;4.60;73.60;;;;;;4959106;28;20530;-65
2023/04/04 07:43:55;;;;;;;0.00;0.00;;;4.60;73.40;;;;;;4962530;28;20047;-65
2023/04/04 07:46:21;;;;;;;0.00;0.00;;;4.70;73.40;;;;;;4960717;28;20053;-64
2023/04/04 07:48:46;;;;;;;0.00;0.00;;;4.70;73.40;;;;;;4959240;28;20055;-65
2023/04/04 07:51:12;;;;;;;0.00;0.00;;;4.80;73.50;;;;;;4962370;28;20047;-65
2023/04/04 07:53:38;;;;;;;0.00;0.00;;;4.90;73.60;;;;;;4961747;28;20048;-65
2023/04/04 07:56:06;;;;;;;0.00;0.00;;;4.90;73.60;;;;;;4960646;28;20547;-64
2023/04/04 07:58:35;;;;;;;0.10;0.10;;;4.90;73.60;;;;;;4962252;28;20043;-64
2023/04/04 08:01:02;;;;;;;0.00;0.00;;;5.00;73.50;;;;;;4960773;28;20094;-65
2023/04/04 08:03:28;;;;;;;0.00;0.00;;;5.10;73.40;;;;;;4963369;28;20558;-62
2023/04/04 08:05:53;;;;;;;0.00;0.00;;;5.10;73.30;;;;;;4959824;28;20039;-62
2023/04/04 08:08:19;;;;;;;0.00;0.00;;;5.10;73.10;;;;;;4961578;28;20523;-63
2023/04/04 08:10:45;;;;;;;0.47;0.47;;;5.20;73.00;;;;;;4961267;28;20043;-63
2023/04/04 08:13:11;;;;;;;0.00;0.00;;;5.20;72.90;;;;;;4958783;28;20035;-64
2023/04/04 08:15:37;;;;;;;0.00;0.00;;;5.20;72.90;;;;;;4960286;28;20039;-64
2023/04/04 08:18:03;;;;;;;0.00;0.00;;;5.30;73.00;;;;;;4961909;28;20419;-63
2023/04/04 08:20:28;;;;;;;0.00;0.00;;;5.30;72.90;;;;;;4957978;28;20046;-64
2023/04/04 08:22:54;;;;;;;0.00;0.00;;;5.30;72.80;;;;;;4960190;28;20457;-63
2023/04/04 08:25:19;;;;;;;0.00;0.00;;;5.40;72.90;;;;;;4961262;28;20039;-64
2023/04/04 08:27:45;;;;;;;0.00;0.00;;;5.40;72.70;;;;;;4960948;28;20527;-64
2023/04/04 08:30:13;;;;;;;0.00;0.00;;;5.40;72.20;;;;;;4961974;28;20062;-64
2023/04/04 08:32:39;;;;;;;0.00;0.00;;;5.50;72.20;;;;;;4960509;28;20690;-64
2023/04/04 08:35:05;;;;;;;0.00;0.00;;;5.60;72.20;;;;;;4961224;28;20215;-64
2023/04/04 08:37:31;;;;;;;0.10;0.10;;;5.70;72.40;;;;;;4961848;28;20138;-63
2023/04/04 08:39:56;;;;;;;0.00;0.00;;;5.70;72.20;;;;;;4961029;28;20043;-63
2023/04/04 08:42:23;;;;;;;0.00;0.00;;;5.70;71.80;;;;;;4960985;28;20069;-63
2023/04/04 08:44:52;;;;;;;0.00;0.00;;;5.70;71.40;;;;;;4959668;28;20035;-63
2023/04/04 08:47:20;;;;;;;0.00;0.00;;;5.80;71.60;;;;;;4960567;28;20122;-63
2023/04/04 08:49:48;;;;;;;0.30;0.30;;;5.80;71.40;;;;;;4961385;28;20051;-64
2023/04/04 08:52:20;;;;;;;0.00;0.00;;;5.70;70.20;;;;;;4946907;28;20038;-64
2023/04/04 08:54:47;;;;;;;0.00;0.00;;;5.80;70.40;;;;;;4961192;28;20039;-63
2023/04/04 08:57:13;;;;;;;0.03;0.03;;;5.80;70.00;;;;;;4957718;28;20518;-63
2023/04/04 08:59:39;;;;;;;0.00;0.00;;;5.90;70.10;;;;;;4958171;28;20035;-64
2023/04/04 09:02:16;;;;;;;0.00;0.00;;;5.90;69.60;;;;;;4960123;28;20122;-64
2023/04/04 09:04:43;;;;;;;0.00;0.00;;;6.00;70.30;;;;;;4959623;28;20626;-64
2023/04/04 09:07:09;;;;;;;0.00;0.00;;;6.10;70.10;;;;;;4960358;28;20518;-63
2023/04/04 09:09:36;;;;;;;0.00;0.00;;;6.10;70.10;;;;;;4961361;28;20047;-64
2023/04/04 09:12:03;;;;;;;0.00;0.00;;;6.20;70.20;;;;;;4959865;28;20130;-63
2023/04/04 09:14:30;;;;;;;0.00;0.00;;;6.30;70.20;;;;;;4961079;28;20166;-64
2023/04/04 09:16:56;;;;;;;0.00;0.00;;;6.40;70.10;;;;;;4962054;28;20453;-64
2023/04/04 09:19:22;;;;;;;0.00;0.00;;;6.60;69.80;;;;;;4959931;28;20046;-64
2023/04/04 09:21:48;;;;;;;0.00;0.00;;;6.60;68.80;;;;;;4960401;28;20492;-63
2023/04/04 09:24:17;;;;;;;0.00;0.00;;;6.60;68.70;;;;;;4960326;28;20047;-63
2023/04/04 09:26:51;;;;;;;0.08;0.08;;;6.70;68.60;;;;;;4962095;28;20535;-63
2023/04/04 09:29:20;;;;;;;0.00;0.00;;;6.80;68.40;;;;;;4961318;28;20116;-63
2023/04/04 09:31:48;;;;;;;0.00;0.00;;;6.80;68.60;;;;;;4960501;28;20051;-63
2023/04/04 09:34:17;;;;;;;0.10;0.10;;;7.00;68.70;;;;;;4960943;28;20047;-64
2023/04/04 09:36:44;;;;;;;0.00;0.00;;;7.00;68.30;;;;;;4961914;28;20043;-63
2023/04/04 09:39:11;;;;;;;0.00;0.00;;;7.10;68.30;;;;;;4961285;28;20043;-63
2023/04/04 09:41:38;;;;;;;0.30;0.30;;;7.20;68.10;;;;;;4962976;28;20169;-64
2023/04/04 09:44:04;;;;;;;0.10;0.10;;;7.20;66.90;;;;;;4960643;28;20830;-64
2023/04/04 09:46:30;;;;;;;0.05;0.05;;;7.10;66.00;;;;;;4962455;28;20182;-64
2023/04/04 09:48:59;;;;;;;0.00;0.00;;;7.10;64.80;;;;;;4948983;28;20047;-64
2023/04/04 09:51:36;;;;;;;0.00;0.00;;;7.20;65.70;;;;;;4964269;28;20049;-63
2023/04/04 09:54:02;;;;;;;2.50;1.35;;;7.20;65.10;;;;;;4960285;28;20507;-63
2023/04/04 09:56:28;;;;;;;0.00;0.00;;;7.20;64.90;;;;;;4961427;28;20511;-64
2023/04/04 09:58:54;;;;;;;0.00;0.00;;;7.20;63.50;;;;;;4963664;28;20043;-64
2023/04/04 10:01:19;;;;;;;0.30;0.30;;;7.30;63.70;;;;;;4963954;28;20046;-63
2023/04/04 10:03:52;;;;;;;0.10;0.10;;;7.40;64.40;;;;;;4964247;28;20042;-64
2023/04/04 10:06:19;;;;;;;0.00;0.00;;;7.50;65.10;;;;;;4963770;28;20051;-63
2023/04/04 10:08:45;;;;;;;0.00;0.00;;;7.50;63.50;;;;;;4965807;28;20129;-63
2023/04/04 10:11:11;;;;;;;0.05;0.05;;;7.60;63.70;;;;;;4966612;28;20035;-64
2023/04/04 10:13:42;;;;;;;0.00;0.00;;;7.70;62.30;;;;;;4946403;28;20102;-64
2023/04/04 10:16:09;;;;;;;0.00;0.00;;;7.70;58.50;;;;;;4962056;28;20039;-63
2023/04/04 10:18:35;;;;;;;0.00;0.00;;;7.70;60.70;;;;;;4962316;28;20750;-63
2023/04/04 10:21:03;;;;;;;0.00;0.00;;;7.80;62.00;;;;;;4964672;28;20574;-64
2023/04/04 10:23:29;;;;;;;0.55;0.55;;;7.90;62.50;;;;;;4962431;28;20492;-66
2023/04/04 10:25:55;;;;;;;0.25;0.25;;;8.00;60.80;;;;;;4960624;28;20046;-64
2023/04/04 10:28:22;;;;;;;0.00;0.00;;;8.10;58.90;;;;;;4962140;28;20056;-64
2023/04/04 10:30:51;;;;;;;0.10;0.10;;;8.10;56.40;;;;;;4962864;28;20059;-64
2023/04/04 10:33:46;;;;;;;0.00;0.00;;;8.20;59.60;;;;;;4962188;28;20416;-64
2023/04/04 10:36:15;;;;;;;0.00;0.00;;;8.10;59.80;;;;;;4927593;28;20403;-64
2023/04/04 10:38:54;;;;;;;0.00;0.00;;;8.10;58.80;;;;;;4960533;28;20407;-64
2023/04/04 10:41:22;;;;;;;0.00;0.00;;;8.00;55.10;;;;;;4961593;28;20039;-64
2023/04/04 10:43:53;;;;;;;0.10;0.10;;;8.10;56.90;;;;;;4961621;28;20043;-63
2023/04/04 10:46:21;;;;;;;0.00;0.00;;;8.10;57.20;;;;;;4963033;28;20051;-64
2023/04/04 10:48:48;;;;;;;0.00;0.00;;;8.20;57.90;;;;;;4960933;28;20071;-63
2023/04/04 10:51:14;;;;;;;0.00;0.00;;;8.30;58.70;;;;;;4961272;28;20486;-64
2023/04/04 10:53:40;;;;;;;0.10;0.10;;;8.30;56.70;;;;;;4962159;28;20126;-64
2023/04/04 10:56:07;;;;;;;0.00;0.00;;;8.50;57.80;;;;;;4962462;28;20417;-63
2023/04/04 10:58:39;;;;;;;0.20;0.20;;;8.50;53.90;;;;;;4944038;28;20609;-63
2023/04/04 11:01:06;;;;;;;;;;;8.60;57.50;;;;;;4962632;28;20078;-64
2023/04/04 11:03:32;;;;;;;0.00;0.00;;;8.60;56.20;;;;;;4961273;28;19976;-63
2023/04/04 11:06:00;;;;;;;0.08;0.08;;;8.70;56.90;;;;;;4961290;28;20416;-64
2023/04/04 11:08:27;;;;;;;7.03;2.38;;;8.70;54.80;;;;;;4960970;28;20074;-64
2023/04/04 11:10:54;;;;;;;0.10;0.10;;;8.80;54.50;;;;;;4961738;28;20074;-64
2023/04/04 11:13:26;;;;;;;0.05;0.05;;;8.80;52.20;;;;;;4961154;28;20043;-63
2023/04/04 11:16:09;;;;;;;0.00;0.00;;;8.80;53.90;;;;;;4952638;28;20046;-64
2023/04/04 11:18:40;;;;;;;0.17;0.17;;;8.90;54.20;;;;;;4961241;28;20452;-63
2023/04/04 11:21:28;;;;;;;0.00;0.00;;;8.90;54.90;;;;;;4960061;28;20597;-64
2023/04/04 11:23:57;;;;;;;0.00;0.00;;;9.00;54.60;;;;;;4960310;28;20070;-64
2023/04/04 11:26:26;;;;;;;0.00;0.00;;;9.10;54.80;;;;;;4961917;28;20071;-64
2023/04/04 11:28:55;;;;;;;0.00;0.00;;;9.10;54.10;;;;;;4965437;28;20070;-65
2023/04/04 11:31:23;;;;;;;0.00;0.00;;;9.20;55.10;;;;;;4965608;28;20057;-65
2023/04/04 11:34:07;;;;;;;0.10;0.10;;;9.20;54.80;;;;;;4963409;28;20034;-64
2023/04/04 11:36:35;;;;;;;0.00;0.00;;;9.40;55.10;;;;;;4964569;28;20043;-64
2023/04/04 11:39:08;;;;;;;0.00;0.00;;;9.50;53.80;;;;;;4962488;28;20053;-65
2023/04/04 11:41:53;;;;;;;0.00;0.00;;;9.50;53.00;;;;;;4946039;28;21075;-65
2023/04/04 11:44:21;;;;;;;0.10;0.10;;;9.60;53.10;;;;;;4960833;28;20046;-64
2023/04/04 11:46:47;;;;;;;0.00;0.00;;;9.60;51.20;;;;;;4960730;28;20122;-65
2023/04/04 11:49:14;;;;;;;0.00;0.00;;;9.60;51.30;;;;;;4961011;28;20411;-65
2023/04/04 11:51:40;;;;;;;0.00;0.00;;;9.60;51.70;;;;;;4958544;28;20086;-65
2023/04/04 11:54:16;;;;;;;0.00;0.00;;;9.60;51.60;;;;;;4962358;28;20051;-66
2023/04/04 11:56:45;;;;;;;0.00;0.00;;;9.60;51.00;;;;;;4961314;28;20403;-65
2023/04/04 11:59:21;;;;;;;0.00;0.00;;;9.80;57.90;;;;;;4963520;28;20049;-65
2023/04/04 12:01:48;;;;;;;0.22;0.22;;;10.50;55.60;;;;;;4959841;28;20039;-64
2023/04/04 12:04:17;;;;;;;0.00;0.00;;;10.70;55.50;;;;;;4962055;28;20093;-64
2023/04/04 12:06:43;;;;;;;0.00;0.00;;;10.60;54.10;;;;;;4961703;28;20412;-65
2023/04/04 12:09:11;;;;;;;0.00;0.00;;;10.50;53.00;;;;;;4944368;28;20047;-66
2023/04/04 12:11:37;;;;;;;0.82;0.82;;;10.60;54.40;;;;;;4960045;28;20047;-65
2023/04/04 12:14:03;;;;;;;0.00;0.00;;;10.40;50.30;;;;;;4961240;28;20125;-64
2023/04/04 12:16:29;;;;;;;0.20;0.20;;;10.50;53.40;;;;;;4963134;28;20162;-64
2023/04/04 12:19:00;;;;;;;0.03;0.03;;;10.80;56.00;;;;;;4961466;28;20129;-73
2023/04/04 12:21:26;;;;;;;0.00;0.00;;;11.40;60.00;;;;;;4961233;28;20055;-65
2023/04/04 12:23:55;;;;;;;0.00;0.00;;;11.80;56.10;;;;;;4961880;28;20381;-66
2023/04/04 12:26:20;;;;;;;0.00;0.00;;;11.80;53.40;;;;;;4962165;28;20042;-65
2023/04/04 12:28:46;;;;;;;0.00;0.00;;;11.70;50.10;;;;;;4955291;28;20393;-66
2023/04/04 12:31:14;;;;;;;0.00;0.00;;;11.60;49.90;;;;;;4958422;28;20046;-66
2023/04/04 12:33:41;;;;;;;0.00;0.00;;;11.60;53.00;;;;;;4945236;28;20490;-66
2023/04/04 12:36:07;;;;;;;0.00;0.00;;;11.60;52.10;;;;;;4957372;28;20066;-65
2023/04/04 12:38:33;;;;;;;0.08;0.08;;;11.50;49.90;;;;;;4960000;28;20412;-65
2023/04/04 12:40:59;;;;;;;0.03;0.03;;;11.40;49.60;;;;;;4958045;28;20050;-65
2023/04/04 12:43:30;;;;;;;0.00;0.00;;;11.40;50.20;;;;;;4960990;28;20832;-65
2023/04/04 12:45:56;;;;;;;0.00;0.00;;;11.30;51.00;;;;;;4960249;28;20054;-66
2023/04/04 12:48:27;;;;;;;0.00;0.00;;;11.20;47.70;;;;;;4956866;28;20047;-66
2023/04/04 12:50:58;;;;;;;0.00;0.00;;;11.20;48.50;;;;;;4959766;28;20051;-65
2023/04/04 12:53:26;;;;;;;0.00;0.00;;;11.20;49.70;;;;;;4960734;28;20051;-65
2023/04/04 12:55:53;;;;;;;0.00;0.00;;;11.20;48.50;;;;;;4960744;28;20051;-66